sensor_id;sensor_type;location;lat;lon;timestamp;temperature;humidity
19168;DHT22;9716;53.114;18.040;2023-05-14T00:00:07;12.60;90.60
19168;DHT22;9716;53.114;18.040;2023-05-14T00:02:59;12.60;90.50
19168;DHT22;9716;53.114;18.040;2023-05-14T00:05:30;12.60;90.60
19168;DHT22;9716;53.114;18.040;2023-05-14T00:08:01;12.60;90.60
19168;DHT22;9716;53.114;18.040;2023-05-14T00:10:33;12.60;90.70
19168;DHT22;9716;53.114;18.040;2023-05-14T00:13:03;12.60;90.70
19168;DHT22;9716;53.114;18.040;2023-05-14T00:15:36;12.50;90.80
19168;DHT22;9716;53.114;18.040;2023-05-14T00:18:07;12.30;90.80
19168;DHT22;9716;53.114;18.040;2023-05-14T00:20:39;12.40;91.00
19168;DHT22;9716;53.114;18.040;2023-05-14T00:23:09;12.30;91.10
19168;DHT22;9716;53.114;18.040;2023-05-14T00:25:40;12.40;91.30
19168;DHT22;9716;53.114;18.040;2023-05-14T00:28:09;12.10;91.30
19168;DHT22;9716;53.114;18.040;2023-05-14T00:30:43;12.10;91.40
19168;DHT22;9716;53.114;18.040;2023-05-14T00:33:14;12.00;91.50
19168;DHT22;9716;53.114;18.040;2023-05-14T00:35:46;12.00;91.60
19168;DHT22;9716;53.114;18.040;2023-05-14T00:38:19;11.90;91.70
19168;DHT22;9716;53.114;18.040;2023-05-14T00:40:50;11.80;91.80
19168;DHT22;9716;53.114;18.040;2023-05-14T00:43:20;11.80;91.90
19168;DHT22;9716;53.114;18.040;2023-05-14T00:45:53;11.70;92.10
19168;DHT22;9716;53.114;18.040;2023-05-14T00:48:24;11.70;92.10
19168;DHT22;9716;53.114;18.040;2023-05-14T00:50:54;11.60;92.20
19168;DHT22;9716;53.114;18.040;2023-05-14T00:53:25;11.60;92.30
19168;DHT22;9716;53.114;18.040;2023-05-14T00:56:03;11.60;92.40
19168;DHT22;9716;53.114;18.040;2023-05-14T00:58:33;11.50;92.50
19168;DHT22;9716;53.114;18.040;2023-05-14T01:01:04;11.50;92.60
19168;DHT22;9716;53.114;18.040;2023-05-14T01:03:37;11.40;92.70
19168;DHT22;9716;53.114;18.040;2023-05-14T01:06:11;11.40;92.80
19168;DHT22;9716;53.114;18.040;2023-05-14T01:08:49;11.40;92.90
19168;DHT22;9716;53.114;18.040;2023-05-14T01:11:29;11.30;92.90
19168;DHT22;9716;53.114;18.040;2023-05-14T01:14:10;11.30;93.00
19168;DHT22;9716;53.114;18.040;2023-05-14T01:16:42;11.30;93.10
19168;DHT22;9716;53.114;18.040;2023-05-14T01:19:21;11.20;93.10
19168;DHT22;9716;53.114;18.040;2023-05-14T01:21:55;11.20;93.20
19168;DHT22;9716;53.114;18.040;2023-05-14T01:24:25;11.20;93.30
19168;DHT22;9716;53.114;18.040;2023-05-14T01:27:01;11.20;93.40
19168;DHT22;9716;53.114;18.040;2023-05-14T01:29:33;11.10;93.40
19168;DHT22;9716;53.114;18.040;2023-05-14T01:32:08;11.10;93.50
19168;DHT22;9716;53.114;18.040;2023-05-14T01:34:39;11.00;93.60
19168;DHT22;9716;53.114;18.040;2023-05-14T01:37:16;11.00;93.70
19168;DHT22;9716;53.114;18.040;2023-05-14T01:39:46;11.00;93.80
19168;DHT22;9716;53.114;18.040;2023-05-14T01:42:16;11.00;93.90
19168;DHT22;9716;53.114;18.040;2023-05-14T01:44:48;10.90;94.00
19168;DHT22;9716;53.114;18.040;2023-05-14T01:47:19;10.90;94.00
19168;DHT22;9716;53.114;18.040;2023-05-14T01:49:52;10.90;94.10
19168;DHT22;9716;53.114;18.040;2023-05-14T01:52:25;10.80;94.10
19168;DHT22;9716;53.114;18.040;2023-05-14T01:54:54;10.90;94.20
19168;DHT22;9716;53.114;18.040;2023-05-14T01:57:25;10.80;94.30
19168;DHT22;9716;53.114;18.040;2023-05-14T01:59:55;10.80;94.40
19168;DHT22;9716;53.114;18.040;2023-05-14T02:02:25;10.70;94.40
19168;DHT22;9716;53.114;18.040;2023-05-14T02:04:55;10.70;94.50
19168;DHT22;9716;53.114;18.040;2023-05-14T02:07:27;10.70;94.60
19168;DHT22;9716;53.114;18.040;2023-05-14T02:09:56;10.70;94.70
19168;DHT22;9716;53.114;18.040;2023-05-14T02:12:26;10.60;94.70
19168;DHT22;9716;53.114;18.040;2023-05-14T02:14:58;10.60;94.90
19168;DHT22;9716;53.114;18.040;2023-05-14T02:17:28;10.50;95.00
19168;DHT22;9716;53.114;18.040;2023-05-14T02:19:57;10.50;95.10
19168;DHT22;9716;53.114;18.040;2023-05-14T02:22:29;10.50;95.20
19168;DHT22;9716;53.114;18.040;2023-05-14T02:24:58;10.50;95.30
19168;DHT22;9716;53.114;18.040;2023-05-14T02:27:28;10.50;95.40
19168;DHT22;9716;53.114;18.040;2023-05-14T02:29:58;10.50;95.50
19168;DHT22;9716;53.114;18.040;2023-05-14T02:32:28;10.40;95.60
19168;DHT22;9716;53.114;18.040;2023-05-14T02:34:58;10.40;95.70
19168;DHT22;9716;53.114;18.040;2023-05-14T02:37:34;10.40;95.80
19168;DHT22;9716;53.114;18.040;2023-05-14T02:40:05;10.40;95.90
19168;DHT22;9716;53.114;18.040;2023-05-14T02:42:35;10.40;96.40
19168;DHT22;9716;53.114;18.040;2023-05-14T02:45:06;10.30;96.20
19168;DHT22;9716;53.114;18.040;2023-05-14T02:47:37;10.30;96.30
19168;DHT22;9716;53.114;18.040;2023-05-14T02:50:08;10.30;96.50
19168;DHT22;9716;53.114;18.040;2023-05-14T02:52:41;10.40;96.70
19168;DHT22;9716;53.114;18.040;2023-05-14T02:55:16;10.30;96.90
19168;DHT22;9716;53.114;18.040;2023-05-14T02:57:48;10.20;97.10
19168;DHT22;9716;53.114;18.040;2023-05-14T03:00:22;10.20;97.30
19168;DHT22;9716;53.114;18.040;2023-05-14T03:02:54;10.20;97.50
19168;DHT22;9716;53.114;18.040;2023-05-14T03:05:25;10.20;97.80
19168;DHT22;9716;53.114;18.040;2023-05-14T03:08:05;10.20;98.00
19168;DHT22;9716;53.114;18.040;2023-05-14T03:10:42;10.20;98.30
19168;DHT22;9716;53.114;18.040;2023-05-14T03:13:16;10.20;98.50
19168;DHT22;9716;53.114;18.040;2023-05-14T03:15:49;10.20;98.90
19168;DHT22;9716;53.114;18.040;2023-05-14T03:18:27;10.20;99.20
19168;DHT22;9716;53.114;18.040;2023-05-14T03:21:00;10.30;99.50
19168;DHT22;9716;53.114;18.040;2023-05-14T03:23:35;10.30;99.80
19168;DHT22;9716;53.114;18.040;2023-05-14T03:26:05;10.30;99.90
19168;DHT22;9716;53.114;18.040;2023-05-14T03:28:45;10.50;99.90
19168;DHT22;9716;53.114;18.040;2023-05-14T03:31:23;10.50;99.90
19168;DHT22;9716;53.114;18.040;2023-05-14T03:33:58;10.70;99.90
19168;DHT22;9716;53.114;18.040;2023-05-14T03:36:34;10.80;99.90
19168;DHT22;9716;53.114;18.040;2023-05-14T03:39:11;10.90;99.90
19168;DHT22;9716;53.114;18.040;2023-05-14T03:41:46;11.10;99.90
19168;DHT22;9716;53.114;18.040;2023-05-14T03:44:21;11.20;99.90
19168;DHT22;9716;53.114;18.040;2023-05-14T03:46:52;11.50;99.90
19168;DHT22;9716;53.114;18.040;2023-05-14T03:49:22;11.70;99.90
19168;DHT22;9716;53.114;18.040;2023-05-14T03:51:57;11.90;99.80
19168;DHT22;9716;53.114;18.040;2023-05-14T03:54:32;12.20;99.30
19168;DHT22;9716;53.114;18.040;2023-05-14T03:57:01;12.40;98.70
19168;DHT22;9716;53.114;18.040;2023-05-14T03:59:36;12.70;98.10
19168;DHT22;9716;53.114;18.040;2023-05-14T04:02:06;13.00;97.60
19168;DHT22;9716;53.114;18.040;2023-05-14T04:04:37;13.30;97.10
19168;DHT22;9716;53.114;18.040;2023-05-14T04:07:10;13.50;96.50
19168;DHT22;9716;53.114;18.040;2023-05-14T04:09:46;13.80;95.90
19168;DHT22;9716;53.114;18.040;2023-05-14T04:12:19;14.10;95.40
19168;DHT22;9716;53.114;18.040;2023-05-14T04:14:54;14.40;95.00
19168;DHT22;9716;53.114;18.040;2023-05-14T04:17:31;14.60;94.80
19168;DHT22;9716;53.114;18.040;2023-05-14T04:20:07;14.90;93.90
19168;DHT22;9716;53.114;18.040;2023-05-14T04:22:45;15.20;93.40
19168;DHT22;9716;53.114;18.040;2023-05-14T04:25:19;15.50;92.90
19168;DHT22;9716;53.114;18.040;2023-05-14T04:27:48;15.80;92.40
19168;DHT22;9716;53.114;18.040;2023-05-14T04:30:19;16.00;92.00
19168;DHT22;9716;53.114;18.040;2023-05-14T04:32:52;16.30;91.50
19168;DHT22;9716;53.114;18.040;2023-05-14T04:35:22;16.50;91.10
19168;DHT22;9716;53.114;18.040;2023-05-14T04:37:53;16.50;90.70
19168;DHT22;9716;53.114;18.040;2023-05-14T04:40:24;16.80;90.40
19168;DHT22;9716;53.114;18.040;2023-05-14T04:42:54;16.90;90.10
19168;DHT22;9716;53.114;18.040;2023-05-14T04:45:24;17.10;89.60
19168;DHT22;9716;53.114;18.040;2023-05-14T04:47:55;17.30;88.90
19168;DHT22;9716;53.114;18.040;2023-05-14T04:50:25;17.50;88.20
19168;DHT22;9716;53.114;18.040;2023-05-14T04:52:54;17.70;87.50
19168;DHT22;9716;53.114;18.040;2023-05-14T04:55:31;17.80;86.90
19168;DHT22;9716;53.114;18.040;2023-05-14T04:58:02;17.90;86.50
19168;DHT22;9716;53.114;18.040;2023-05-14T05:00:35;18.00;86.20
19168;DHT22;9716;53.114;18.040;2023-05-14T05:03:09;18.20;85.90
19168;DHT22;9716;53.114;18.040;2023-05-14T05:05:41;18.40;85.40
19168;DHT22;9716;53.114;18.040;2023-05-14T05:08:14;18.60;85.10
19168;DHT22;9716;53.114;18.040;2023-05-14T05:10:48;18.90;84.60
19168;DHT22;9716;53.114;18.040;2023-05-14T05:13:20;19.10;83.50
19168;DHT22;9716;53.114;18.040;2023-05-14T05:15:54;19.40;83.00
19168;DHT22;9716;53.114;18.040;2023-05-14T05:18:37;19.60;82.20
19168;DHT22;9716;53.114;18.040;2023-05-14T05:21:07;19.70;81.40
19168;DHT22;9716;53.114;18.040;2023-05-14T05:23:36;19.70;81.20
19168;DHT22;9716;53.114;18.040;2023-05-14T05:26:16;19.80;80.90
19168;DHT22;9716;53.114;18.040;2023-05-14T05:28:48;20.00;80.30
19168;DHT22;9716;53.114;18.040;2023-05-14T05:31:21;20.20;79.90
19168;DHT22;9716;53.114;18.040;2023-05-14T05:33:50;20.10;79.30
19168;DHT22;9716;53.114;18.040;2023-05-14T05:36:20;19.90;79.30
19168;DHT22;9716;53.114;18.040;2023-05-14T05:38:50;19.60;79.60
19168;DHT22;9716;53.114;18.040;2023-05-14T05:41:25;19.30;80.10
19168;DHT22;9716;53.114;18.040;2023-05-14T05:43:56;19.10;80.80
19168;DHT22;9716;53.114;18.040;2023-05-14T05:46:25;18.90;81.30
19168;DHT22;9716;53.114;18.040;2023-05-14T05:48:56;18.70;81.60
19168;DHT22;9716;53.114;18.040;2023-05-14T05:51:27;18.50;82.20
19168;DHT22;9716;53.114;18.040;2023-05-14T05:53:56;18.40;82.60
19168;DHT22;9716;53.114;18.040;2023-05-14T05:56:28;18.30;82.90
19168;DHT22;9716;53.114;18.040;2023-05-14T05:58:57;18.30;82.90
19168;DHT22;9716;53.114;18.040;2023-05-14T06:01:30;18.30;83.00
19168;DHT22;9716;53.114;18.040;2023-05-14T06:04:00;18.30;83.20
19168;DHT22;9716;53.114;18.040;2023-05-14T06:06:30;18.30;83.20
19168;DHT22;9716;53.114;18.040;2023-05-14T06:09:00;18.40;83.30
19168;DHT22;9716;53.114;18.040;2023-05-14T06:11:35;18.50;83.10
19168;DHT22;9716;53.114;18.040;2023-05-14T06:14:06;18.70;82.70
19168;DHT22;9716;53.114;18.040;2023-05-14T06:16:38;18.90;82.10
19168;DHT22;9716;53.114;18.040;2023-05-14T06:19:08;19.20;81.40
19168;DHT22;9716;53.114;18.040;2023-05-14T06:21:38;19.80;80.60
19168;DHT22;9716;53.114;18.040;2023-05-14T06:24:07;20.50;79.00
19168;DHT22;9716;53.114;18.040;2023-05-14T06:26:41;21.30;77.10
19168;DHT22;9716;53.114;18.040;2023-05-14T06:29:10;22.00;75.20
19168;DHT22;9716;53.114;18.040;2023-05-14T06:31:40;22.50;73.70
19168;DHT22;9716;53.114;18.040;2023-05-14T06:34:10;22.90;72.50
19168;DHT22;9716;53.114;18.040;2023-05-14T06:36:50;22.90;72.80
19168;DHT22;9716;53.114;18.040;2023-05-14T06:39:20;22.80;71.90
19168;DHT22;9716;53.114;18.040;2023-05-14T06:41:58;22.90;72.00
19168;DHT22;9716;53.114;18.040;2023-05-14T06:44:34;23.20;71.40
19168;DHT22;9716;53.114;18.040;2023-05-14T06:47:10;23.90;70.40
19168;DHT22;9716;53.114;18.040;2023-05-14T06:49:39;24.60;68.70
19168;DHT22;9716;53.114;18.040;2023-05-14T06:52:14;25.00;67.40
19168;DHT22;9716;53.114;18.040;2023-05-14T06:54:44;25.00;66.90
19168;DHT22;9716;53.114;18.040;2023-05-14T06:57:24;24.70;66.70
19168;DHT22;9716;53.114;18.040;2023-05-14T07:00:02;24.30;66.60
19168;DHT22;9716;53.114;18.040;2023-05-14T07:02:32;24.00;67.40
19168;DHT22;9716;53.114;18.040;2023-05-14T07:05:05;23.80;67.80
19168;DHT22;9716;53.114;18.040;2023-05-14T07:07:46;23.90;67.80
19168;DHT22;9716;53.114;18.040;2023-05-14T07:10:15;24.20;67.50
19168;DHT22;9716;53.114;18.040;2023-05-14T07:12:46;24.60;66.50
19168;DHT22;9716;53.114;18.040;2023-05-14T07:15:18;24.70;66.30
19168;DHT22;9716;53.114;18.040;2023-05-14T07:17:49;24.90;66.80
19168;DHT22;9716;53.114;18.040;2023-05-14T07:20:20;25.30;66.60
19168;DHT22;9716;53.114;18.040;2023-05-14T07:22:51;25.60;65.90
19168;DHT22;9716;53.114;18.040;2023-05-14T07:25:21;26.00;65.50
19168;DHT22;9716;53.114;18.040;2023-05-14T07:27:56;26.30;64.70
19168;DHT22;9716;53.114;18.040;2023-05-14T07:30:27;26.40;63.60
19168;DHT22;9716;53.114;18.040;2023-05-14T07:33:00;26.60;63.30
19168;DHT22;9716;53.114;18.040;2023-05-14T07:35:31;26.90;62.30
19168;DHT22;9716;53.114;18.040;2023-05-14T07:38:06;27.00;61.50
19168;DHT22;9716;53.114;18.040;2023-05-14T07:40:36;27.10;61.30
19168;DHT22;9716;53.114;18.040;2023-05-14T07:43:09;27.30;60.40
19168;DHT22;9716;53.114;18.040;2023-05-14T07:45:39;27.50;59.90
19168;DHT22;9716;53.114;18.040;2023-05-14T07:48:15;27.80;59.40
19168;DHT22;9716;53.114;18.040;2023-05-14T07:50:44;27.90;58.90
19168;DHT22;9716;53.114;18.040;2023-05-14T07:53:15;28.00;58.80
19168;DHT22;9716;53.114;18.040;2023-05-14T07:55:48;28.20;58.60
19168;DHT22;9716;53.114;18.040;2023-05-14T07:58:24;28.30;58.10
19168;DHT22;9716;53.114;18.040;2023-05-14T08:00:57;28.50;58.00
19168;DHT22;9716;53.114;18.040;2023-05-14T08:03:41;28.60;57.80
19168;DHT22;9716;53.114;18.040;2023-05-14T08:06:11;28.60;57.00
19168;DHT22;9716;53.114;18.040;2023-05-14T08:08:47;28.70;57.00
19168;DHT22;9716;53.114;18.040;2023-05-14T08:11:18;28.70;57.10
19168;DHT22;9716;53.114;18.040;2023-05-14T08:13:56;28.70;56.70
19168;DHT22;9716;53.114;18.040;2023-05-14T08:16:31;28.90;55.50
19168;DHT22;9716;53.114;18.040;2023-05-14T08:19:04;28.90;55.80
19168;DHT22;9716;53.114;18.040;2023-05-14T08:21:43;29.00;55.60
19168;DHT22;9716;53.114;18.040;2023-05-14T08:24:16;29.30;55.20
19168;DHT22;9716;53.114;18.040;2023-05-14T08:26:48;29.40;54.90
19168;DHT22;9716;53.114;18.040;2023-05-14T08:29:25;29.50;54.70
19168;DHT22;9716;53.114;18.040;2023-05-14T08:31:59;29.60;54.30
19168;DHT22;9716;53.114;18.040;2023-05-14T08:34:52;29.70;54.10
19168;DHT22;9716;53.114;18.040;2023-05-14T08:37:30;29.50;54.20
19168;DHT22;9716;53.114;18.040;2023-05-14T08:40:02;29.60;54.30
19168;DHT22;9716;53.114;18.040;2023-05-14T08:42:44;29.60;53.70
19168;DHT22;9716;53.114;18.040;2023-05-14T08:45:20;29.60;53.60
19168;DHT22;9716;53.114;18.040;2023-05-14T08:47:56;29.50;53.80
19168;DHT22;9716;53.114;18.040;2023-05-14T08:50:36;29.50;53.70
19168;DHT22;9716;53.114;18.040;2023-05-14T08:53:06;29.50;52.80
19168;DHT22;9716;53.114;18.040;2023-05-14T08:55:38;29.50;52.80
19168;DHT22;9716;53.114;18.040;2023-05-14T08:58:10;29.30;52.50
19168;DHT22;9716;53.114;18.040;2023-05-14T09:00:53;29.20;52.60
19168;DHT22;9716;53.114;18.040;2023-05-14T09:03:24;29.00;52.60
19168;DHT22;9716;53.114;18.040;2023-05-14T09:05:56;28.90;52.60
19168;DHT22;9716;53.114;18.040;2023-05-14T09:08:26;28.90;52.50
19168;DHT22;9716;53.114;18.040;2023-05-14T09:11:00;28.80;52.50
19168;DHT22;9716;53.114;18.040;2023-05-14T09:13:36;28.80;52.70
19168;DHT22;9716;53.114;18.040;2023-05-14T09:16:25;28.60;52.70
19168;DHT22;9716;53.114;18.040;2023-05-14T09:18:59;28.40;52.10
19168;DHT22;9716;53.114;18.040;2023-05-14T09:21:36;28.00;52.30
19168;DHT22;9716;53.114;18.040;2023-05-14T09:24:07;27.70;52.80
19168;DHT22;9716;53.114;18.040;2023-05-14T09:26:49;27.40;53.00
19168;DHT22;9716;53.114;18.040;2023-05-14T09:29:19;27.10;53.40
19168;DHT22;9716;53.114;18.040;2023-05-14T09:31:52;26.70;53.60
19168;DHT22;9716;53.114;18.040;2023-05-14T09:34:23;26.20;53.90
19168;DHT22;9716;53.114;18.040;2023-05-14T09:36:55;25.90;54.30
19168;DHT22;9716;53.114;18.040;2023-05-14T09:39:25;25.60;54.70
19168;DHT22;9716;53.114;18.040;2023-05-14T09:42:00;25.30;55.10
19168;DHT22;9716;53.114;18.040;2023-05-14T09:44:30;25.20;55.70
19168;DHT22;9716;53.114;18.040;2023-05-14T09:47:02;25.20;56.10
19168;DHT22;9716;53.114;18.040;2023-05-14T09:49:33;25.40;55.70
19168;DHT22;9716;53.114;18.040;2023-05-14T09:52:06;25.60;55.00
19168;DHT22;9716;53.114;18.040;2023-05-14T09:54:36;25.50;54.60
19168;DHT22;9716;53.114;18.040;2023-05-14T09:57:06;25.40;54.60
19168;DHT22;9716;53.114;18.040;2023-05-14T09:59:38;25.20;54.30
19168;DHT22;9716;53.114;18.040;2023-05-14T10:02:24;25.10;54.30
19168;DHT22;9716;53.114;18.040;2023-05-14T10:04:54;25.00;54.00
19168;DHT22;9716;53.114;18.040;2023-05-14T10:07:32;24.90;53.80
19168;DHT22;9716;53.114;18.040;2023-05-14T10:10:07;24.90;53.80
19168;DHT22;9716;53.114;18.040;2023-05-14T10:12:43;24.70;53.40
19168;DHT22;9716;53.114;18.040;2023-05-14T10:15:19;24.90;53.30
19168;DHT22;9716;53.114;18.040;2023-05-14T10:18:03;24.70;52.90
19168;DHT22;9716;53.114;18.040;2023-05-14T10:20:39;24.70;53.00
19168;DHT22;9716;53.114;18.040;2023-05-14T10:23:11;24.60;52.70
19168;DHT22;9716;53.114;18.040;2023-05-14T10:25:41;24.60;52.90
19168;DHT22;9716;53.114;18.040;2023-05-14T10:28:13;24.70;53.10
19168;DHT22;9716;53.114;18.040;2023-05-14T10:30:45;24.90;52.90
19168;DHT22;9716;53.114;18.040;2023-05-14T10:33:17;24.90;52.50
19168;DHT22;9716;53.114;18.040;2023-05-14T10:35:58;25.00;52.10
19168;DHT22;9716;53.114;18.040;2023-05-14T10:38:28;25.00;52.30
19168;DHT22;9716;53.114;18.040;2023-05-14T10:41:00;24.90;52.40
19168;DHT22;9716;53.114;18.040;2023-05-14T10:43:36;24.90;52.20
19168;DHT22;9716;53.114;18.040;2023-05-14T10:46:06;24.80;52.20
19168;DHT22;9716;53.114;18.040;2023-05-14T10:48:41;24.80;52.10
19168;DHT22;9716;53.114;18.040;2023-05-14T10:51:14;24.70;51.90
19168;DHT22;9716;53.114;18.040;2023-05-14T10:53:52;24.70;51.20
19168;DHT22;9716;53.114;18.040;2023-05-14T10:56:23;24.60;51.30
19168;DHT22;9716;53.114;18.040;2023-05-14T10:58:57;24.50;51.20
19168;DHT22;9716;53.114;18.040;2023-05-14T11:01:31;24.50;51.90
19168;DHT22;9716;53.114;18.040;2023-05-14T11:04:17;24.40;50.70
19168;DHT22;9716;53.114;18.040;2023-05-14T11:06:54;24.30;50.50
19168;DHT22;9716;53.114;18.040;2023-05-14T11:09:28;24.20;50.80
19168;DHT22;9716;53.114;18.040;2023-05-14T11:11:58;24.20;51.90
19168;DHT22;9716;53.114;18.040;2023-05-14T11:14:29;24.30;51.20
19168;DHT22;9716;53.114;18.040;2023-05-14T11:16:58;24.40;51.00
19168;DHT22;9716;53.114;18.040;2023-05-14T11:19:30;24.60;50.80
19168;DHT22;9716;53.114;18.040;2023-05-14T11:22:02;24.90;50.50
19168;DHT22;9716;53.114;18.040;2023-05-14T11:24:34;24.90;50.10
19168;DHT22;9716;53.114;18.040;2023-05-14T11:27:04;25.00;50.10
19168;DHT22;9716;53.114;18.040;2023-05-14T11:29:43;25.00;49.80
19168;DHT22;9716;53.114;18.040;2023-05-14T11:32:46;24.70;49.70
19168;DHT22;9716;53.114;18.040;2023-05-14T11:35:26;24.70;50.30
19168;DHT22;9716;53.114;18.040;2023-05-14T11:38:02;24.60;50.70
19168;DHT22;9716;53.114;18.040;2023-05-14T11:40:38;24.50;51.10
19168;DHT22;9716;53.114;18.040;2023-05-14T11:43:12;24.50;51.40
19168;DHT22;9716;53.114;18.040;2023-05-14T11:45:49;24.40;51.70
19168;DHT22;9716;53.114;18.040;2023-05-14T11:48:23;24.50;52.00
19168;DHT22;9716;53.114;18.040;2023-05-14T11:50:59;24.60;52.20
19168;DHT22;9716;53.114;18.040;2023-05-14T11:53:29;24.70;52.30
19168;DHT22;9716;53.114;18.040;2023-05-14T11:56:03;24.80;52.30
19168;DHT22;9716;53.114;18.040;2023-05-14T11:58:36;24.80;52.40
19168;DHT22;9716;53.114;18.040;2023-05-14T12:01:12;24.90;52.50
19168;DHT22;9716;53.114;18.040;2023-05-14T12:03:41;25.00;52.60
19168;DHT22;9716;53.114;18.040;2023-05-14T12:06:15;25.20;52.70
19168;DHT22;9716;53.114;18.040;2023-05-14T12:08:46;25.50;52.30
19168;DHT22;9716;53.114;18.040;2023-05-14T12:11:30;25.60;52.10
19168;DHT22;9716;53.114;18.040;2023-05-14T12:14:14;25.80;51.70
19168;DHT22;9716;53.114;18.040;2023-05-14T12:16:47;25.90;51.50
19168;DHT22;9716;53.114;18.040;2023-05-14T12:19:18;25.90;51.30
19168;DHT22;9716;53.114;18.040;2023-05-14T12:21:54;25.90;50.90
19168;DHT22;9716;53.114;18.040;2023-05-14T12:24:28;26.00;51.20
19168;DHT22;9716;53.114;18.040;2023-05-14T12:27:00;26.00;51.00
19168;DHT22;9716;53.114;18.040;2023-05-14T12:29:35;26.00;50.90
19168;DHT22;9716;53.114;18.040;2023-05-14T12:32:10;26.00;50.70
19168;DHT22;9716;53.114;18.040;2023-05-14T12:34:46;25.90;50.10
19168;DHT22;9716;53.114;18.040;2023-05-14T12:37:27;25.90;50.00
19168;DHT22;9716;53.114;18.040;2023-05-14T12:40:02;25.80;49.70
19168;DHT22;9716;53.114;18.040;2023-05-14T12:42:44;25.60;49.50
19168;DHT22;9716;53.114;18.040;2023-05-14T12:45:16;25.50;49.60
19168;DHT22;9716;53.114;18.040;2023-05-14T12:48:05;25.40;49.70
19168;DHT22;9716;53.114;18.040;2023-05-14T12:50:37;25.30;49.40
19168;DHT22;9716;53.114;18.040;2023-05-14T12:53:15;25.20;49.60
19168;DHT22;9716;53.114;18.040;2023-05-14T12:55:47;25.10;49.60
19168;DHT22;9716;53.114;18.040;2023-05-14T12:58:24;25.00;50.10
19168;DHT22;9716;53.114;18.040;2023-05-14T13:01:00;25.10;50.50
19168;DHT22;9716;53.114;18.040;2023-05-14T13:03:32;25.10;50.30
19168;DHT22;9716;53.114;18.040;2023-05-14T13:06:02;25.20;50.30
19168;DHT22;9716;53.114;18.040;2023-05-14T13:08:37;25.20;50.40
19168;DHT22;9716;53.114;18.040;2023-05-14T13:11:09;25.00;50.40
19168;DHT22;9716;53.114;18.040;2023-05-14T13:13:42;24.90;50.60
19168;DHT22;9716;53.114;18.040;2023-05-14T13:16:13;24.80;51.00
19168;DHT22;9716;53.114;18.040;2023-05-14T13:18:47;24.80;51.20
19168;DHT22;9716;53.114;18.040;2023-05-14T13:21:32;24.70;51.10
19168;DHT22;9716;53.114;18.040;2023-05-14T13:24:07;24.50;51.30
19168;DHT22;9716;53.114;18.040;2023-05-14T13:26:37;24.50;51.70
19168;DHT22;9716;53.114;18.040;2023-05-14T13:29:07;24.40;51.70
19168;DHT22;9716;53.114;18.040;2023-05-14T13:31:40;24.50;51.80
19168;DHT22;9716;53.114;18.040;2023-05-14T13:34:11;24.60;51.80
19168;DHT22;9716;53.114;18.040;2023-05-14T13:36:41;24.60;51.80
19168;DHT22;9716;53.114;18.040;2023-05-14T13:39:15;24.70;51.90
19168;DHT22;9716;53.114;18.040;2023-05-14T13:41:49;24.70;52.10
19168;DHT22;9716;53.114;18.040;2023-05-14T13:44:25;24.70;52.00
19168;DHT22;9716;53.114;18.040;2023-05-14T13:47:09;24.70;52.00
19168;DHT22;9716;53.114;18.040;2023-05-14T13:49:52;24.70;52.00
19168;DHT22;9716;53.114;18.040;2023-05-14T13:52:33;24.60;51.70
19168;DHT22;9716;53.114;18.040;2023-05-14T13:55:09;24.60;51.80
19168;DHT22;9716;53.114;18.040;2023-05-14T13:57:39;24.50;51.80
19168;DHT22;9716;53.114;18.040;2023-05-14T14:00:14;24.50;52.00
19168;DHT22;9716;53.114;18.040;2023-05-14T14:02:44;24.60;52.20
19168;DHT22;9716;53.114;18.040;2023-05-14T14:05:19;24.60;52.20
19168;DHT22;9716;53.114;18.040;2023-05-14T14:07:54;24.60;52.30
19168;DHT22;9716;53.114;18.040;2023-05-14T14:10:44;24.60;52.30
19168;DHT22;9716;53.114;18.040;2023-05-14T14:13:18;24.40;52.20
19168;DHT22;9716;53.114;18.040;2023-05-14T14:15:49;24.40;52.50
19168;DHT22;9716;53.114;18.040;2023-05-14T14:18:20;24.40;52.50
19168;DHT22;9716;53.114;18.040;2023-05-14T14:21:03;24.30;52.70
19168;DHT22;9716;53.114;18.040;2023-05-14T14:23:35;24.20;52.90
19168;DHT22;9716;53.114;18.040;2023-05-14T14:26:21;24.20;53.00
19168;DHT22;9716;53.114;18.040;2023-05-14T14:29:00;24.20;52.90
19168;DHT22;9716;53.114;18.040;2023-05-14T14:31:31;24.20;52.90
19168;DHT22;9716;53.114;18.040;2023-05-14T14:34:05;24.00;52.80
19168;DHT22;9716;53.114;18.040;2023-05-14T14:36:45;23.90;53.00
19168;DHT22;9716;53.114;18.040;2023-05-14T14:39:43;23.80;53.10
19168;DHT22;9716;53.114;18.040;2023-05-14T14:42:22;23.80;53.30
19168;DHT22;9716;53.114;18.040;2023-05-14T14:44:57;23.70;53.20
19168;DHT22;9716;53.114;18.040;2023-05-14T14:47:36;23.70;53.40
19168;DHT22;9716;53.114;18.040;2023-05-14T14:50:07;23.70;53.40
19168;DHT22;9716;53.114;18.040;2023-05-14T14:52:41;23.60;53.60
19168;DHT22;9716;53.114;18.040;2023-05-14T14:55:12;23.50;53.60
19168;DHT22;9716;53.114;18.040;2023-05-14T14:57:46;23.50;53.70
19168;DHT22;9716;53.114;18.040;2023-05-14T15:00:21;23.50;54.00
19168;DHT22;9716;53.114;18.040;2023-05-14T15:03:00;23.50;54.00
19168;DHT22;9716;53.114;18.040;2023-05-14T15:05:34;23.40;53.90
19168;DHT22;9716;53.114;18.040;2023-05-14T15:08:16;23.30;53.90
19168;DHT22;9716;53.114;18.040;2023-05-14T15:10:48;23.20;53.90
19168;DHT22;9716;53.114;18.040;2023-05-14T15:13:26;23.30;54.20
19168;DHT22;9716;53.114;18.040;2023-05-14T15:16:00;23.30;54.40
19168;DHT22;9716;53.114;18.040;2023-05-14T15:18:34;23.30;54.40
19168;DHT22;9716;53.114;18.040;2023-05-14T15:21:09;23.40;54.40
19168;DHT22;9716;53.114;18.040;2023-05-14T15:23:46;23.50;54.50
19168;DHT22;9716;53.114;18.040;2023-05-14T15:26:16;23.50;54.60
19168;DHT22;9716;53.114;18.040;2023-05-14T15:28:50;23.40;54.60
19168;DHT22;9716;53.114;18.040;2023-05-14T15:31:30;23.40;54.90
19168;DHT22;9716;53.114;18.040;2023-05-14T15:34:07;23.40;54.90
19168;DHT22;9716;53.114;18.040;2023-05-14T15:36:46;23.30;54.90
19168;DHT22;9716;53.114;18.040;2023-05-14T15:39:18;23.30;55.20
19168;DHT22;9716;53.114;18.040;2023-05-14T15:41:51;23.30;55.30
19168;DHT22;9716;53.114;18.040;2023-05-14T15:44:27;23.20;55.40
19168;DHT22;9716;53.114;18.040;2023-05-14T15:46:57;23.10;55.40
19168;DHT22;9716;53.114;18.040;2023-05-14T15:49:33;23.00;55.50
19168;DHT22;9716;53.114;18.040;2023-05-14T15:52:06;23.00;55.60
19168;DHT22;9716;53.114;18.040;2023-05-14T15:54:45;22.90;55.80
19168;DHT22;9716;53.114;18.040;2023-05-14T15:57:23;22.80;56.10
19168;DHT22;9716;53.114;18.040;2023-05-14T16:00:00;22.70;56.30
19168;DHT22;9716;53.114;18.040;2023-05-14T16:02:41;22.60;56.40
19168;DHT22;9716;53.114;18.040;2023-05-14T16:05:14;22.50;56.60
19168;DHT22;9716;53.114;18.040;2023-05-14T16:07:47;22.50;56.70
19168;DHT22;9716;53.114;18.040;2023-05-14T16:10:32;22.30;56.70